sensor_id;sensor_type;location;lat;lon;timestamp;P1;durP1;ratioP1;P2;durP2;ratioP2
3054;SDS011;1537;52.018;8.542;2024-03-02T00:00:24;12.27;;;9.70;;
3054;SDS011;1537;52.018;8.542;2024-03-02T00:03:49;12.30;;;9.40;;
3054;SDS011;1537;52.018;8.542;2024-03-02T00:07:13;12.97;;;9.00;;
3054;SDS011;1537;52.018;8.542;2024-03-02T00:10:37;11.23;;;9.67;;
3054;SDS011;1537;52.018;8.542;2024-03-02T00:14:02;10.67;;;8.17;;
3054;SDS011;1537;52.018;8.542;2024-03-02T00:17:28;13.53;;;9.57;;
3054;SDS011;1537;52.018;8.542;2024-03-02T00:20:53;12.50;;;9.07;;
3054;SDS011;1537;52.018;8.542;2024-03-02T00:24:19;11.33;;;9.03;;
3054;SDS011;1537;52.018;8.542;2024-03-02T00:27:47;13.43;;;10.27;;
3054;SDS011;1537;52.018;8.542;2024-03-02T00:31:11;12.50;;;8.97;;
3054;SDS011;1537;52.018;8.542;2024-03-02T00:34:37;13.30;;;9.13;;
3054;SDS011;1537;52.018;8.542;2024-03-02T00:38:03;13.90;;;10.27;;
3054;SDS011;1537;52.018;8.542;2024-03-02T00:41:28;11.93;;;9.27;;
3054;SDS011;1537;52.018;8.542;2024-03-02T00:44:53;13.23;;;10.27;;
3054;SDS011;1537;52.018;8.542;2024-03-02T00:48:16;13.83;;;10.17;;
3054;SDS011;1537;52.018;8.542;2024-03-02T00:51:44;12.80;;;8.97;;
3054;SDS011;1537;52.018;8.542;2024-03-02T00:55:11;13.53;;;9.53;;
3054;SDS011;1537;52.018;8.542;2024-03-02T00:58:35;12.53;;;9.70;;
3054;SDS011;1537;52.018;8.542;2024-03-02T01:01:59;13.30;;;9.20;;
3054;SDS011;1537;52.018;8.542;2024-03-02T01:05:23;9.77;;;8.20;;
3054;SDS011;1537;52.018;8.542;2024-03-02T01:08:48;10.80;;;8.43;;
3054;SDS011;1537;52.018;8.542;2024-03-02T01:12:14;11.10;;;9.20;;
3054;SDS011;1537;52.018;8.542;2024-03-02T01:15:38;11.57;;;9.47;;
3054;SDS011;1537;52.018;8.542;2024-03-02T01:19:01;12.60;;;8.73;;
3054;SDS011;1537;52.018;8.542;2024-03-02T01:22:26;12.07;;;9.00;;
3054;SDS011;1537;52.018;8.542;2024-03-02T01:25:51;11.50;;;9.03;;
3054;SDS011;1537;52.018;8.542;2024-03-02T01:29:15;10.87;;;8.77;;
3054;SDS011;1537;52.018;8.542;2024-03-02T01:32:39;12.07;;;7.00;;
3054;SDS011;1537;52.018;8.542;2024-03-02T01:36:02;12.43;;;7.63;;
3054;SDS011;1537;52.018;8.542;2024-03-02T01:39:27;10.23;;;7.50;;
3054;SDS011;1537;52.018;8.542;2024-03-02T01:42:52;11.73;;;9.53;;
3054;SDS011;1537;52.018;8.542;2024-03-02T01:46:16;9.97;;;7.80;;
3054;SDS011;1537;52.018;8.542;2024-03-02T01:49:40;9.67;;;8.67;;
3054;SDS011;1537;52.018;8.542;2024-03-02T01:53:04;9.50;;;7.63;;
3054;SDS011;1537;52.018;8.542;2024-03-02T01:56:27;10.73;;;8.83;;
3054;SDS011;1537;52.018;8.542;2024-03-02T01:59:52;10.60;;;8.30;;
3054;SDS011;1537;52.018;8.542;2024-03-02T02:03:16;10.43;;;8.53;;
3054;SDS011;1537;52.018;8.542;2024-03-02T02:06:39;9.70;;;6.73;;
3054;SDS011;1537;52.018;8.542;2024-03-02T02:10:04;9.40;;;7.27;;
3054;SDS011;1537;52.018;8.542;2024-03-02T02:13:28;11.10;;;8.60;;
3054;SDS011;1537;52.018;8.542;2024-03-02T02:16:53;11.50;;;8.63;;
3054;SDS011;1537;52.018;8.542;2024-03-02T02:20:17;11.87;;;8.53;;
3054;SDS011;1537;52.018;8.542;2024-03-02T02:23:42;9.20;;;8.17;;
3054;SDS011;1537;52.018;8.542;2024-03-02T02:27:10;10.40;;;8.43;;
3054;SDS011;1537;52.018;8.542;2024-03-02T02:30:34;10.40;;;8.37;;
3054;SDS011;1537;52.018;8.542;2024-03-02T02:33:58;9.33;;;7.63;;
3054;SDS011;1537;52.018;8.542;2024-03-02T02:37:22;8.77;;;7.30;;
3054;SDS011;1537;52.018;8.542;2024-03-02T02:40:46;12.23;;;8.70;;
3054;SDS011;1537;52.018;8.542;2024-03-02T02:44:10;9.23;;;7.77;;
3054;SDS011;1537;52.018;8.542;2024-03-02T02:47:34;10.87;;;8.13;;
3054;SDS011;1537;52.018;8.542;2024-03-02T02:50:58;9.70;;;7.87;;
3054;SDS011;1537;52.018;8.542;2024-03-02T02:54:22;11.10;;;8.47;;
3054;SDS011;1537;52.018;8.542;2024-03-02T02:57:47;9.50;;;8.27;;
3054;SDS011;1537;52.018;8.542;2024-03-02T03:01:10;10.50;;;7.80;;
3054;SDS011;1537;52.018;8.542;2024-03-02T03:04:34;9.27;;;7.63;;
3054;SDS011;1537;52.018;8.542;2024-03-02T03:07:58;11.07;;;8.20;;
3054;SDS011;1537;52.018;8.542;2024-03-02T03:11:21;11.07;;;8.50;;
3054;SDS011;1537;52.018;8.542;2024-03-02T03:14:48;10.43;;;8.30;;
3054;SDS011;1537;52.018;8.542;2024-03-02T03:18:11;11.90;;;9.20;;
3054;SDS011;1537;52.018;8.542;2024-03-02T03:21:35;13.20;;;9.70;;
3054;SDS011;1537;52.018;8.542;2024-03-02T03:24:59;10.50;;;8.47;;
3054;SDS011;1537;52.018;8.542;2024-03-02T03:28:23;12.33;;;9.13;;
3054;SDS011;1537;52.018;8.542;2024-03-02T03:31:47;16.50;;;10.30;;
3054;SDS011;1537;52.018;8.542;2024-03-02T03:35:11;11.73;;;9.33;;
3054;SDS011;1537;52.018;8.542;2024-03-02T03:38:36;11.13;;;9.20;;
3054;SDS011;1537;52.018;8.542;2024-03-02T03:42:00;15.07;;;10.10;;
3054;SDS011;1537;52.018;8.542;2024-03-02T03:45:23;11.97;;;10.23;;
3054;SDS011;1537;52.018;8.542;2024-03-02T03:48:50;12.00;;;10.07;;
3054;SDS011;1537;52.018;8.542;2024-03-02T03:52:13;13.07;;;9.80;;
3054;SDS011;1537;52.018;8.542;2024-03-02T03:55:37;13.10;;;9.43;;
3054;SDS011;1537;52.018;8.542;2024-03-02T03:59:00;13.70;;;10.00;;
3054;SDS011;1537;52.018;8.542;2024-03-02T04:02:24;13.10;;;10.83;;
3054;SDS011;1537;52.018;8.542;2024-03-02T04:05:49;14.80;;;11.63;;
3054;SDS011;1537;52.018;8.542;2024-03-02T04:09:13;12.87;;;11.47;;
3054;SDS011;1537;52.018;8.542;2024-03-02T04:12:37;15.13;;;10.70;;
3054;SDS011;1537;52.018;8.542;2024-03-02T04:16:00;13.87;;;10.00;;
3054;SDS011;1537;52.018;8.542;2024-03-02T04:19:25;14.67;;;11.50;;
3054;SDS011;1537;52.018;8.542;2024-03-02T04:22:50;14.33;;;11.30;;
3054;SDS011;1537;52.018;8.542;2024-03-02T04:26:14;16.87;;;11.80;;
3054;SDS011;1537;52.018;8.542;2024-03-02T04:29:41;14.20;;;10.93;;
3054;SDS011;1537;52.018;8.542;2024-03-02T04:33:05;19.60;;;14.10;;
3054;SDS011;1537;52.018;8.542;2024-03-02T04:36:31;15.67;;;10.90;;
3054;SDS011;1537;52.018;8.542;2024-03-02T04:39:56;15.17;;;12.43;;
3054;SDS011;1537;52.018;8.542;2024-03-02T04:43:20;13.37;;;10.20;;
3054;SDS011;1537;52.018;8.542;2024-03-02T04:46:44;16.60;;;11.67;;
3054;SDS011;1537;52.018;8.542;2024-03-02T04:50:07;14.20;;;10.67;;
3054;SDS011;1537;52.018;8.542;2024-03-02T04:53:32;12.73;;;11.33;;
3054;SDS011;1537;52.018;8.542;2024-03-02T04:56:57;15.90;;;10.90;;
3054;SDS011;1537;52.018;8.542;2024-03-02T05:00:20;14.43;;;10.10;;
3054;SDS011;1537;52.018;8.542;2024-03-02T05:03:44;15.13;;;10.73;;
3054;SDS011;1537;52.018;8.542;2024-03-02T05:07:08;16.43;;;12.23;;
3054;SDS011;1537;52.018;8.542;2024-03-02T05:10:32;13.67;;;11.17;;
3054;SDS011;1537;52.018;8.542;2024-03-02T05:13:57;17.53;;;12.30;;
3054;SDS011;1537;52.018;8.542;2024-03-02T05:17:20;15.73;;;11.47;;
3054;SDS011;1537;52.018;8.542;2024-03-02T05:20:44;16.40;;;11.23;;
3054;SDS011;1537;52.018;8.542;2024-03-02T05:24:08;15.40;;;12.10;;
3054;SDS011;1537;52.018;8.542;2024-03-02T05:27:32;19.10;;;12.10;;
3054;SDS011;1537;52.018;8.542;2024-03-02T05:30:57;15.53;;;10.93;;
3054;SDS011;1537;52.018;8.542;2024-03-02T05:34:20;17.90;;;11.33;;
3054;SDS011;1537;52.018;8.542;2024-03-02T05:37:44;18.10;;;12.50;;
3054;SDS011;1537;52.018;8.542;2024-03-02T05:41:08;14.37;;;10.57;;
3054;SDS011;1537;52.018;8.542;2024-03-02T05:44:31;16.10;;;11.00;;
3054;SDS011;1537;52.018;8.542;2024-03-02T05:47:56;14.67;;;10.47;;
3054;SDS011;1537;52.018;8.542;2024-03-02T05:51:20;14.23;;;10.67;;
3054;SDS011;1537;52.018;8.542;2024-03-02T05:54:43;16.63;;;11.57;;
3054;SDS011;1537;52.018;8.542;2024-03-02T05:58:07;18.10;;;12.23;;
3054;SDS011;1537;52.018;8.542;2024-03-02T06:01:45;15.37;;;10.50;;
3054;SDS011;1537;52.018;8.542;2024-03-02T06:05:11;16.47;;;12.07;;
3054;SDS011;1537;52.018;8.542;2024-03-02T06:08:35;16.60;;;12.03;;
3054;SDS011;1537;52.018;8.542;2024-03-02T06:11:58;14.60;;;11.97;;
3054;SDS011;1537;52.018;8.542;2024-03-02T06:15:22;15.83;;;11.77;;
3054;SDS011;1537;52.018;8.542;2024-03-02T06:18:46;16.77;;;11.50;;
3054;SDS011;1537;52.018;8.542;2024-03-02T06:22:11;18.80;;;12.93;;
3054;SDS011;1537;52.018;8.542;2024-03-02T06:25:34;17.13;;;12.53;;
3054;SDS011;1537;52.018;8.542;2024-03-02T06:28:58;15.77;;;10.70;;
3054;SDS011;1537;52.018;8.542;2024-03-02T06:32:24;16.13;;;11.27;;
3054;SDS011;1537;52.018;8.542;2024-03-02T06:35:47;15.83;;;11.53;;
3054;SDS011;1537;52.018;8.542;2024-03-02T06:39:13;15.50;;;12.17;;
3054;SDS011;1537;52.018;8.542;2024-03-02T06:42:37;15.70;;;10.93;;
3054;SDS011;1537;52.018;8.542;2024-03-02T06:46:00;17.73;;;12.70;;
3054;SDS011;1537;52.018;8.542;2024-03-02T06:49:24;18.77;;;12.77;;
3054;SDS011;1537;52.018;8.542;2024-03-02T06:52:48;14.87;;;11.37;;
3054;SDS011;1537;52.018;8.542;2024-03-02T06:56:13;16.83;;;10.83;;
3054;SDS011;1537;52.018;8.542;2024-03-02T06:59:37;20.20;;;10.40;;
3054;SDS011;1537;52.018;8.542;2024-03-02T07:03:00;17.60;;;12.90;;
3054;SDS011;1537;52.018;8.542;2024-03-02T07:06:24;16.93;;;12.73;;
3054;SDS011;1537;52.018;8.542;2024-03-02T07:09:47;14.70;;;9.70;;
3054;SDS011;1537;52.018;8.542;2024-03-02T07:13:13;17.70;;;12.43;;
3054;SDS011;1537;52.018;8.542;2024-03-02T07:16:37;16.50;;;10.87;;
3054;SDS011;1537;52.018;8.542;2024-03-02T07:20:02;14.70;;;12.00;;
3054;SDS011;1537;52.018;8.542;2024-03-02T07:23:26;16.50;;;10.77;;
3054;SDS011;1537;52.018;8.542;2024-03-02T07:26:50;15.20;;;12.07;;
3054;SDS011;1537;52.018;8.542;2024-03-02T07:30:17;16.40;;;11.70;;
3054;SDS011;1537;52.018;8.542;2024-03-02T07:33:41;15.20;;;11.70;;
3054;SDS011;1537;52.018;8.542;2024-03-02T07:37:06;11.20;;;8.23;;
3054;SDS011;1537;52.018;8.542;2024-03-02T07:40:30;16.73;;;10.60;;
3054;SDS011;1537;52.018;8.542;2024-03-02T07:43:54;18.30;;;11.27;;
3054;SDS011;1537;52.018;8.542;2024-03-02T07:47:20;17.10;;;12.40;;
3054;SDS011;1537;52.018;8.542;2024-03-02T07:50:43;18.17;;;12.77;;
3054;SDS011;1537;52.018;8.542;2024-03-02T07:54:07;15.27;;;9.97;;
3054;SDS011;1537;52.018;8.542;2024-03-02T07:57:31;18.00;;;12.80;;
3054;SDS011;1537;52.018;8.542;2024-03-02T08:00:55;16.40;;;10.90;;
3054;SDS011;1537;52.018;8.542;2024-03-02T08:04:20;13.40;;;10.90;;
3054;SDS011;1537;52.018;8.542;2024-03-02T08:07:43;14.67;;;12.00;;
3054;SDS011;1537;52.018;8.542;2024-03-02T08:11:07;11.60;;;9.50;;
3054;SDS011;1537;52.018;8.542;2024-03-02T08:14:31;15.80;;;10.80;;
3054;SDS011;1537;52.018;8.542;2024-03-02T08:17:54;13.20;;;11.20;;
3054;SDS011;1537;52.018;8.542;2024-03-02T08:21:19;14.37;;;10.63;;
3054;SDS011;1537;52.018;8.542;2024-03-02T08:24:43;13.40;;;9.30;;
3054;SDS011;1537;52.018;8.542;2024-03-02T08:28:07;11.87;;;8.90;;
3054;SDS011;1537;52.018;8.542;2024-03-02T08:31:31;16.07;;;12.37;;
3054;SDS011;1537;52.018;8.542;2024-03-02T08:34:55;14.93;;;12.33;;
3054;SDS011;1537;52.018;8.542;2024-03-02T08:38:19;12.87;;;11.17;;
3054;SDS011;1537;52.018;8.542;2024-03-02T08:41:44;13.00;;;10.40;;
3054;SDS011;1537;52.018;8.542;2024-03-02T08:45:08;13.63;;;10.10;;
3054;SDS011;1537;52.018;8.542;2024-03-02T08:48:32;13.07;;;10.87;;
3054;SDS011;1537;52.018;8.542;2024-03-02T08:51:57;11.57;;;10.03;;
3054;SDS011;1537;52.018;8.542;2024-03-02T08:55:22;11.30;;;10.10;;
3054;SDS011;1537;52.018;8.542;2024-03-02T08:58:46;11.70;;;9.87;;
3054;SDS011;1537;52.018;8.542;2024-03-02T09:02:09;10.80;;;9.57;;
3054;SDS011;1537;52.018;8.542;2024-03-02T09:05:33;10.60;;;9.13;;
3054;SDS011;1537;52.018;8.542;2024-03-02T09:08:56;10.70;;;9.10;;
3054;SDS011;1537;52.018;8.542;2024-03-02T09:12:21;11.70;;;9.17;;
3054;SDS011;1537;52.018;8.542;2024-03-02T09:15:45;12.73;;;8.97;;
3054;SDS011;1537;52.018;8.542;2024-03-02T09:19:09;9.40;;;7.87;;
3054;SDS011;1537;52.018;8.542;2024-03-02T09:22:33;12.37;;;9.80;;
3054;SDS011;1537;52.018;8.542;2024-03-02T09:25:56;9.70;;;7.73;;
3054;SDS011;1537;52.018;8.542;2024-03-02T09:29:21;9.90;;;8.40;;
3054;SDS011;1537;52.018;8.542;2024-03-02T09:32:45;9.73;;;8.20;;
3054;SDS011;1537;52.018;8.542;2024-03-02T09:36:17;8.67;;;7.40;;
3054;SDS011;1537;52.018;8.542;2024-03-02T09:39:43;10.83;;;8.47;;
3054;SDS011;1537;52.018;8.542;2024-03-02T09:43:07;9.47;;;8.00;;
3054;SDS011;1537;52.018;8.542;2024-03-02T09:46:33;9.70;;;8.10;;
3054;SDS011;1537;52.018;8.542;2024-03-02T09:49:58;9.10;;;8.07;;
3054;SDS011;1537;52.018;8.542;2024-03-02T09:53:22;10.10;;;9.10;;
3054;SDS011;1537;52.018;8.542;2024-03-02T09:56:50;11.10;;;8.30;;
3054;SDS011;1537;52.018;8.542;2024-03-02T10:00:14;9.73;;;8.73;;
3054;SDS011;1537;52.018;8.542;2024-03-02T10:03:40;15.40;;;10.20;;
3054;SDS011;1537;52.018;8.542;2024-03-02T10:07:13;9.90;;;7.70;;
3054;SDS011;1537;52.018;8.542;2024-03-02T10:10:43;9.80;;;7.50;;
3054;SDS011;1537;52.018;8.542;2024-03-02T10:14:09;9.30;;;8.30;;
3054;SDS011;1537;52.018;8.542;2024-03-02T10:17:33;14.40;;;9.23;;
3054;SDS011;1537;52.018;8.542;2024-03-02T10:21:06;11.97;;;9.10;;
3054;SDS011;1537;52.018;8.542;2024-03-02T10:24:37;9.90;;;8.17;;
3054;SDS011;1537;52.018;8.542;2024-03-02T10:28:01;8.97;;;7.83;;
3054;SDS011;1537;52.018;8.542;2024-03-02T10:31:27;9.07;;;8.13;;
3054;SDS011;1537;52.018;8.542;2024-03-02T10:34:51;9.60;;;8.43;;
3054;SDS011;1537;52.018;8.542;2024-03-02T10:38:16;9.50;;;8.50;;
3054;SDS011;1537;52.018;8.542;2024-03-02T10:41:40;11.13;;;9.90;;
3054;SDS011;1537;52.018;8.542;2024-03-02T10:45:05;10.73;;;8.60;;
3054;SDS011;1537;52.018;8.542;2024-03-02T10:48:30;8.83;;;7.50;;
3054;SDS011;1537;52.018;8.542;2024-03-02T10:51:55;10.33;;;8.50;;
3054;SDS011;1537;52.018;8.542;2024-03-02T10:55:21;9.87;;;7.43;;
3054;SDS011;1537;52.018;8.542;2024-03-02T10:58:45;9.47;;;7.90;;
3054;SDS011;1537;52.018;8.542;2024-03-02T11:02:10;11.53;;;8.67;;
3054;SDS011;1537;52.018;8.542;2024-03-02T11:05:36;9.60;;;8.40;;
3054;SDS011;1537;52.018;8.542;2024-03-02T11:09:04;8.77;;;7.70;;
3054;SDS011;1537;52.018;8.542;2024-03-02T11:12:34;10.03;;;7.73;;
3054;SDS011;1537;52.018;8.542;2024-03-02T11:16:03;8.57;;;7.53;;
3054;SDS011;1537;52.018;8.542;2024-03-02T11:19:32;7.13;;;5.70;;
3054;SDS011;1537;52.018;8.542;2024-03-02T11:22:56;9.43;;;7.57;;
3054;SDS011;1537;52.018;8.542;2024-03-02T11:26:20;9.27;;;7.27;;
3054;SDS011;1537;52.018;8.542;2024-03-02T11:29:46;8.27;;;7.43;;
3054;SDS011;1537;52.018;8.542;2024-03-02T11:33:10;8.13;;;6.27;;
3054;SDS011;1537;52.018;8.542;2024-03-02T11:36:34;9.73;;;7.23;;
3054;SDS011;1537;52.018;8.542;2024-03-02T11:40:00;9.87;;;7.67;;
3054;SDS011;1537;52.018;8.542;2024-03-02T11:43:25;7.50;;;6.30;;
3054;SDS011;1537;52.018;8.542;2024-03-02T11:46:53;9.23;;;6.70;;
3054;SDS011;1537;52.018;8.542;2024-03-02T11:50:28;8.03;;;6.70;;
3054;SDS011;1537;52.018;8.542;2024-03-02T11:53:52;9.90;;;7.53;;
3054;SDS011;1537;52.018;8.542;2024-03-02T11:57:19;12.77;;;9.10;;
3054;SDS011;1537;52.018;8.542;2024-03-02T12:00:44;10.40;;;7.43;;
3054;SDS011;1537;52.018;8.542;2024-03-02T12:04:09;9.47;;;7.13;;
3054;SDS011;1537;52.018;8.542;2024-03-02T12:07:33;8.13;;;6.80;;
3054;SDS011;1537;52.018;8.542;2024-03-02T12:10:58;8.50;;;7.60;;
3054;SDS011;1537;52.018;8.542;2024-03-02T12:14:22;8.73;;;7.50;;
3054;SDS011;1537;52.018;8.542;2024-03-02T12:17:52;8.47;;;6.50;;
3054;SDS011;1537;52.018;8.542;2024-03-02T12:21:17;8.97;;;7.33;;
3054;SDS011;1537;52.018;8.542;2024-03-02T12:24:43;9.20;;;7.43;;
3054;SDS011;1537;52.018;8.542;2024-03-02T12:28:08;9.23;;;7.70;;
3054;SDS011;1537;52.018;8.542;2024-03-02T12:31:32;9.33;;;8.33;;
3054;SDS011;1537;52.018;8.542;2024-03-02T12:34:55;8.57;;;7.30;;
3054;SDS011;1537;52.018;8.542;2024-03-02T12:38:20;8.93;;;7.27;;
3054;SDS011;1537;52.018;8.542;2024-03-02T12:41:47;9.43;;;7.10;;
3054;SDS011;1537;52.018;8.542;2024-03-02T12:45:12;7.80;;;6.80;;
3054;SDS011;1537;52.018;8.542;2024-03-02T12:48:36;8.50;;;7.03;;
3054;SDS011;1537;52.018;8.542;2024-03-02T12:52:02;9.60;;;6.50;;
3054;SDS011;1537;52.018;8.542;2024-03-02T12:55:28;9.00;;;7.07;;
3054;SDS011;1537;52.018;8.542;2024-03-02T12:58:53;10.10;;;6.70;;
3054;SDS011;1537;52.018;8.542;2024-03-02T13:02:17;7.90;;;6.67;;
3054;SDS011;1537;52.018;8.542;2024-03-02T13:05:41;7.63;;;5.80;;
3054;SDS011;1537;52.018;8.542;2024-03-02T13:09:05;7.13;;;5.47;;
3054;SDS011;1537;52.018;8.542;2024-03-02T13:12:39;7.20;;;6.50;;
3054;SDS011;1537;52.018;8.542;2024-03-02T13:16:03;7.77;;;6.30;;
3054;SDS011;1537;52.018;8.542;2024-03-02T13:19:30;6.83;;;6.13;;
3054;SDS011;1537;52.018;8.542;2024-03-02T13:22:54;7.50;;;6.70;;
3054;SDS011;1537;52.018;8.542;2024-03-02T13:26:17;7.23;;;5.77;;
3054;SDS011;1537;52.018;8.542;2024-03-02T13:29:42;6.87;;;6.17;;
3054;SDS011;1537;52.018;8.542;2024-03-02T13:33:06;7.77;;;6.80;;
3054;SDS011;1537;52.018;8.542;2024-03-02T13:36:30;7.27;;;6.10;;
3054;SDS011;1537;52.018;8.542;2024-03-02T13:39:53;7.30;;;6.53;;
3054;SDS011;1537;52.018;8.542;2024-03-02T13:43:17;6.87;;;5.73;;
3054;SDS011;1537;52.018;8.542;2024-03-02T13:46:43;6.73;;;5.50;;
3054;SDS011;1537;52.018;8.542;2024-03-02T13:50:07;6.53;;;5.40;;
3054;SDS011;1537;52.018;8.542;2024-03-02T13:53:31;6.70;;;5.90;;
3054;SDS011;1537;52.018;8.542;2024-03-02T13:56:55;7.20;;;6.50;;
3054;SDS011;1537;52.018;8.542;2024-03-02T14:00:19;6.37;;;5.60;;
3054;SDS011;1537;52.018;8.542;2024-03-02T14:03:45;7.97;;;6.13;;
3054;SDS011;1537;52.018;8.542;2024-03-02T14:07:09;6.97;;;5.83;;
3054;SDS011;1537;52.018;8.542;2024-03-02T14:10:33;7.57;;;5.77;;
3054;SDS011;1537;52.018;8.542;2024-03-02T14:13:57;8.10;;;6.13;;
3054;SDS011;1537;52.018;8.542;2024-03-02T14:17:21;6.40;;;5.10;;
3054;SDS011;1537;52.018;8.542;2024-03-02T14:20:46;6.63;;;5.03;;
3054;SDS011;1537;52.018;8.542;2024-03-02T14:24:14;6.37;;;5.43;;
3054;SDS011;1537;52.018;8.542;2024-03-02T14:27:37;6.67;;;5.10;;
3054;SDS011;1537;52.018;8.542;2024-03-02T14:31:21;6.23;;;5.30;;
3054;SDS011;1537;52.018;8.542;2024-03-02T14:34:44;7.20;;;6.03;;
3054;SDS011;1537;52.018;8.542;2024-03-02T14:38:10;6.70;;;5.07;;
3054;SDS011;1537;52.018;8.542;2024-03-02T14:41:37;7.00;;;5.97;;
3054;SDS011;1537;52.018;8.542;2024-03-02T14:45:01;7.50;;;5.40;;
3054;SDS011;1537;52.018;8.542;2024-03-02T14:48:27;5.80;;;4.70;;
3054;SDS011;1537;52.018;8.542;2024-03-02T14:51:51;5.33;;;4.47;;
3054;SDS011;1537;52.018;8.542;2024-03-02T14:55:16;6.27;;;5.27;;
3054;SDS011;1537;52.018;8.542;2024-03-02T14:58:42;5.97;;;5.37;;
3054;SDS011;1537;52.018;8.542;2024-03-02T15:02:07;8.23;;;4.90;;
3054;SDS011;1537;52.018;8.542;2024-03-02T15:05:31;6.70;;;4.70;;
3054;SDS011;1537;52.018;8.542;2024-03-02T15:08:57;6.90;;;4.77;;
3054;SDS011;1537;52.018;8.542;2024-03-02T15:12:27;6.33;;;5.27;;
3054;SDS011;1537;52.018;8.542;2024-03-02T15:15:51;5.23;;;4.33;;
3054;SDS011;1537;52.018;8.542;2024-03-02T15:19:14;6.47;;;5.30;;
3054;SDS011;1537;52.018;8.542;2024-03-02T15:22:38;5.80;;;4.70;;
3054;SDS011;1537;52.018;8.542;2024-03-02T15:26:04;5.60;;;4.53;;
3054;SDS011;1537;52.018;8.542;2024-03-02T15:29:31;5.77;;;4.33;;
3054;SDS011;1537;52.018;8.542;2024-03-02T15:32:56;7.00;;;5.83;;
3054;SDS011;1537;52.018;8.542;2024-03-02T15:36:19;8.33;;;4.33;;
3054;SDS011;1537;52.018;8.542;2024-03-02T15:39:43;7.57;;;4.67;;
3054;SDS011;1537;52.018;8.542;2024-03-02T15:43:07;5.40;;;4.67;;
3054;SDS011;1537;52.018;8.542;2024-03-02T15:46:32;7.00;;;4.83;;
3054;SDS011;1537;52.018;8.542;2024-03-02T15:49:56;6.47;;;5.30;;
3054;SDS011;1537;52.018;8.542;2024-03-02T15:53:19;6.00;;;4.40;;
3054;SDS011;1537;52.018;8.542;2024-03-02T15:56:43;5.37;;;4.40;;
3054;SDS011;1537;52.018;8.542;2024-03-02T16:00:08;9.87;;;5.63;;
3054;SDS011;1537;52.018;8.542;2024-03-02T16:03:36;6.53;;;5.30;;
3054;SDS011;1537;52.018;8.542;2024-03-02T16:07:00;7.03;;;5.30;;
3054;SDS011;1537;52.018;8.542;2024-03-02T16:10:25;6.70;;;5.47;;
3054;SDS011;1537;52.018;8.542;2024-03-02T16:13:50;6.40;;;5.60;;
3054;SDS011;1537;52.018;8.542;2024-03-02T16:17:14;7.70;;;5.20;;
3054;SDS011;1537;52.018;8.542;2024-03-02T16:20:39;6.30;;;5.37;;
3054;SDS011;1537;52.018;8.542;2024-03-02T16:24:03;8.17;;;5.80;;
3054;SDS011;1537;52.018;8.542;2024-03-02T16:27:27;7.70;;;6.27;;
3054;SDS011;1537;52.018;8.542;2024-03-02T16:30:50;6.63;;;5.07;;
3054;SDS011;1537;52.018;8.542;2024-03-02T16:34:15;7.53;;;5.97;;
3054;SDS011;1537;52.018;8.542;2024-03-02T16:37:40;6.83;;;5.60;;
3054;SDS011;1537;52.018;8.542;2024-03-02T16:41:04;7.17;;;5.67;;
3054;SDS011;1537;52.018;8.542;2024-03-02T16:44:28;7.20;;;5.93;;
3054;SDS011;1537;52.018;8.542;2024-03-02T16:47:52;6.40;;;5.40;;
3054;SDS011;1537;52.018;8.542;2024-03-02T16:51:16;6.10;;;5.40;;
3054;SDS011;1537;52.018;8.542;2024-03-02T16:54:41;6.90;;;5.50;;
3054;SDS011;1537;52.018;8.542;2024-03-02T16:58:05;5.70;;;4.60;;
3054;SDS011;1537;52.018;8.542;2024-03-02T17:01:31;7.43;;;5.13;;
3054;SDS011;1537;52.018;8.542;2024-03-02T17:04:55;7.60;;;5.20;;
3054;SDS011;1537;52.018;8.542;2024-03-02T17:08:19;6.60;;;4.70;;
3054;SDS011;1537;52.018;8.542;2024-03-02T17:11:43;6.93;;;5.33;;
3054;SDS011;1537;52.018;8.542;2024-03-02T17:15:07;8.43;;;5.27;;
3054;SDS011;1537;52.018;8.542;2024-03-02T17:18:32;7.10;;;5.00;;
3054;SDS011;1537;52.018;8.542;2024-03-02T17:21:55;6.50;;;5.53;;
3054;SDS011;1537;52.018;8.542;2024-03-02T17:25:19;6.80;;;5.23;;
3054;SDS011;1537;52.018;8.542;2024-03-02T17:28:44;6.27;;;5.20;;
3054;SDS011;1537;52.018;8.542;2024-03-02T17:32:08;6.63;;;5.37;;
3054;SDS011;1537;52.018;8.542;2024-03-02T17:35:31;8.23;;;5.33;;
3054;SDS011;1537;52.018;8.542;2024-03-02T17:38:56;5.90;;;5.17;;
3054;SDS011;1537;52.018;8.542;2024-03-02T17:42:20;6.20;;;4.90;;
3054;SDS011;1537;52.018;8.542;2024-03-02T17:45:45;6.80;;;4.90;;
3054;SDS011;1537;52.018;8.542;2024-03-02T17:49:09;6.23;;;5.20;;
3054;SDS011;1537;52.018;8.542;2024-03-02T17:52:32;6.13;;;4.60;;
3054;SDS011;1537;52.018;8.542;2024-03-02T17:55:58;6.20;;;4.80;;
3054;SDS011;1537;52.018;8.542;2024-03-02T17:59:22;7.20;;;5.30;;
3054;SDS011;1537;52.018;8.542;2024-03-02T18:02:47;6.97;;;5.30;;
3054;SDS011;1537;52.018;8.542;2024-03-02T18:06:12;6.90;;;4.90;;
3054;SDS011;1537;52.018;8.542;2024-03-02T18:09:36;7.83;;;5.27;;
3054;SDS011;1537;52.018;8.542;2024-03-02T18:13:00;8.00;;;6.20;;
3054;SDS011;1537;52.018;8.542;2024-03-02T18:16:26;8.53;;;7.30;;
3054;SDS011;1537;52.018;8.542;2024-03-02T18:19:51;8.03;;;6.23;;
3054;SDS011;1537;52.018;8.542;2024-03-02T18:23:15;7.93;;;6.80;;
3054;SDS011;1537;52.018;8.542;2024-03-02T18:26:39;8.27;;;5.40;;
3054;SDS011;1537;52.018;8.542;2024-03-02T18:30:03;7.67;;;5.63;;
3054;SDS011;1537;52.018;8.542;2024-03-02T18:33:31;7.30;;;6.20;;
3054;SDS011;1537;52.018;8.542;2024-03-02T18:36:57;8.50;;;5.63;;
3054;SDS011;1537;52.018;8.542;2024-03-02T18:40:21;8.20;;;5.70;;
3054;SDS011;1537;52.018;8.542;2024-03-02T18:43:44;8.70;;;6.10;;
3054;SDS011;1537;52.018;8.542;2024-03-02T18:47:08;9.33;;;6.60;;
3054;SDS011;1537;52.018;8.542;2024-03-02T18:50:32;8.00;;;6.37;;
3054;SDS011;1537;52.018;8.542;2024-03-02T18:53:57;9.00;;;6.60;;
3054;SDS011;1537;52.018;8.542;2024-03-02T18:57:21;7.83;;;6.10;;
3054;SDS011;1537;52.018;8.542;2024-03-02T19:00:44;8.83;;;5.90;;
3054;SDS011;1537;52.018;8.542;2024-03-02T19:04:08;7.73;;;6.37;;
3054;SDS011;1537;52.018;8.542;2024-03-02T19:07:32;12.40;;;8.27;;
3054;SDS011;1537;52.018;8.542;2024-03-02T19:10:57;8.67;;;7.37;;
3054;SDS011;1537;52.018;8.542;2024-03-02T19:14:21;10.23;;;7.63;;
3054;SDS011;1537;52.018;8.542;2024-03-02T19:17:45;11.03;;;7.73;;
3054;SDS011;1537;52.018;8.542;2024-03-02T19:21:08;9.37;;;6.37;;
3054;SDS011;1537;52.018;8.542;2024-03-02T19:24:34;9.60;;;8.20;;
3054;SDS011;1537;52.018;8.542;2024-03-02T19:28:00;9.80;;;7.37;;
3054;SDS011;1537;52.018;8.542;2024-03-02T19:31:24;10.90;;;9.10;;
3054;SDS011;1537;52.018;8.542;2024-03-02T19:34:47;9.07;;;7.77;;
3054;SDS011;1537;52.018;8.542;2024-03-02T19:38:11;9.97;;;8.50;;
3054;SDS011;1537;52.018;8.542;2024-03-02T19:41:35;10.90;;;8.43;;
3054;SDS011;1537;52.018;8.542;2024-03-02T19:45:00;14.07;;;8.87;;
3054;SDS011;1537;52.018;8.542;2024-03-02T19:48:26;10.00;;;9.00;;
3054;SDS011;1537;52.018;8.542;2024-03-02T19:51:50;12.57;;;9.30;;
3054;SDS011;1537;52.018;8.542;2024-03-02T19:55:14;11.47;;;8.47;;
3054;SDS011;1537;52.018;8.542;2024-03-02T19:58:38;11.17;;;8.90;;
3054;SDS011;1537;52.018;8.542;2024-03-02T20:02:04;12.67;;;9.50;;
3054;SDS011;1537;52.018;8.542;2024-03-02T20:05:32;14.40;;;10.20;;
3054;SDS011;1537;52.018;8.542;2024-03-02T20:08:55;13.70;;;10.57;;
3054;SDS011;1537;52.018;8.542;2024-03-02T20:12:19;14.10;;;10.47;;
3054;SDS011;1537;52.018;8.542;2024-03-02T20:15:43;15.37;;;10.47;;
3054;SDS011;1537;52.018;8.542;2024-03-02T20:19:08;14.70;;;11.57;;
3054;SDS011;1537;52.018;8.542;2024-03-02T20:22:32;12.30;;;10.00;;
3054;SDS011;1537;52.018;8.542;2024-03-02T20:25:55;14.57;;;10.90;;
3054;SDS011;1537;52.018;8.542;2024-03-02T20:29:20;12.60;;;10.20;;
3054;SDS011;1537;52.018;8.542;2024-03-02T20:32:43;13.50;;;10.17;;
3054;SDS011;1537;52.018;8.542;2024-03-02T20:36:12;13.20;;;9.87;;
3054;SDS011;1537;52.018;8.542;2024-03-02T20:39:36;13.73;;;9.67;;
3054;SDS011;1537;52.018;8.542;2024-03-02T20:43:01;12.60;;;11.17;;
3054;SDS011;1537;52.018;8.542;2024-03-02T20:46:26;13.93;;;11.60;;
3054;SDS011;1537;52.018;8.542;2024-03-02T20:49:50;12.07;;;9.90;;
3054;SDS011;1537;52.018;8.542;2024-03-02T20:53:15;12.17;;;10.50;;
3054;SDS011;1537;52.018;8.542;2024-03-02T20:56:39;12.80;;;11.47;;